Time;durP1;ratioP1;P1;durP2;ratioP2;P2;SDS_P1;SDS_P2;PMS_P1;PMS_P2;Temp;Humidity;BMP_temperature;BMP_pressure;BME280_temperature;BME280_humidity;BME280_pressure;Samples;Min_cycle;Max_cycle;Signal;HPM_P1;HPM_P2
2023/11/17 00:01:46;;;;;;;8.38;5.88;;;6.90;99.90;;;;;;5023290;28;20030;-91
2023/11/17 00:04:14;;;;;;;6.72;5.03;;;6.90;99.90;;;;;;5022655;28;20052;-91
2023/11/17 00:06:40;;;;;;;;;;;6.90;99.90;;;;;;5022449;28;20106;-91
2023/11/17 00:09:10;;;;;;;7.35;5.78;;;6.90;99.90;;;;;;5020981;28;19906;-93
2023/11/17 00:11:36;;;;;;;8.48;6.60;;;6.90;99.90;;;;;;5002114;28;20045;-92
2023/11/17 00:14:02;;;;;;;7.50;3.72;;;6.90;99.90;;;;;;5017768;28;20028;-91
2023/11/17 00:16:28;;;;;;;7.60;4.15;;;6.90;99.90;;;;;;5020889;28;20026;-93
2023/11/17 00:18:53;;;;;;;8.75;4.45;;;6.90;99.90;;;;;;5010337;28;20103;-93
2023/11/17 00:21:19;;;;;;;6.20;3.67;;;6.90;99.90;;;;;;5020062;28;20030;-92
2023/11/17 00:23:45;;;;;;;5.32;4.13;;;6.90;99.90;;;;;;5001858;28;20022;-92
2023/11/17 00:26:11;;;;;;;7.60;3.85;;;7.00;99.90;;;;;;5002248;28;20037;-92
2023/11/17 00:28:40;;;;;;;6.05;4.10;;;6.90;99.90;;;;;;5012530;28;20021;-92
2023/11/17 00:31:06;;;;;;;6.30;4.05;;;6.90;99.90;;;;;;5020179;28;20092;-93
2023/11/17 00:33:32;;;;;;;5.05;4.30;;;7.00;99.90;;;;;;5023376;28;20031;-92
2023/11/17 00:35:57;;;;;;;6.07;2.78;;;7.00;99.90;;;;;;4999336;28;20471;-91
2023/11/17 00:38:23;;;;;;;5.30;3.47;;;6.90;99.90;;;;;;5004540;28;20037;-91
2023/11/17 00:40:49;;;;;;;4.38;3.17;;;7.00;99.90;;;;;;5018724;28;20082;-92
2023/11/17 00:43:15;;;;;;;5.72;3.55;;;6.90;99.90;;;;;;5018831;28;20026;-92
2023/11/17 00:45:40;;;;;;;5.18;3.45;;;7.00;99.90;;;;;;5018737;28;20129;-92
2023/11/17 00:48:06;;;;;;;5.22;3.75;;;6.90;99.90;;;;;;5020336;28;20105;-93
2023/11/17 00:50:32;;;;;;;6.82;3.63;;;6.90;99.90;;;;;;5018957;28;20041;-91
2023/11/17 00:53:05;;;;;;;6.03;3.45;;;6.90;99.90;;;;;;5019430;28;20026;-92
2023/11/17 00:55:31;;;;;;;5.43;2.60;;;6.90;99.90;;;;;;5023884;28;20085;-93
2023/11/17 00:57:58;;;;;;;4.28;3.88;;;6.90;99.90;;;;;;5021049;28;20056;-92
2023/11/17 01:00:24;;;;;;;4.78;2.92;;;7.00;99.90;;;;;;5018761;28;20026;-92
2023/11/17 01:02:50;;;;;;;4.53;2.65;;;7.00;99.90;;;;;;5020373;28;20052;-92
2023/11/17 01:05:18;;;;;;;3.88;2.50;;;7.00;99.90;;;;;;5002050;28;20116;-91
2023/11/17 01:07:44;;;;;;;2.83;2.25;;;7.00;99.90;;;;;;5020369;28;20029;-91
2023/11/17 01:10:10;;;;;;;2.70;2.28;;;7.00;99.90;;;;;;5018860;28;20029;-91
2023/11/17 01:12:35;;;;;;;2.10;1.88;;;7.00;99.90;;;;;;5019384;28;20046;-92
2023/11/17 01:15:07;;;;;;;3.97;2.72;;;7.00;99.90;;;;;;5020929;28;20042;-92
2023/11/17 01:17:33;;;;;;;3.72;2.08;;;7.00;99.90;;;;;;5021383;28;20075;-92
2023/11/17 01:19:59;;;;;;;2.63;2.13;;;7.00;99.90;;;;;;5022672;28;20030;-93
2023/11/17 01:22:24;;;;;;;3.92;2.08;;;7.00;99.90;;;;;;5004073;28;20028;-93
2023/11/17 01:24:50;;;;;;;2.72;2.30;;;7.00;99.90;;;;;;5003003;28;20026;-92
2023/11/17 01:27:16;;;;;;;2.72;2.53;;;7.00;99.90;;;;;;5020416;28;20033;-91
2023/11/17 01:29:42;;;;;;;3.08;2.35;;;6.90;99.90;;;;;;5018395;28;20018;-91
2023/11/17 01:32:07;;;;;;;4.03;2.05;;;6.90;99.90;;;;;;5018919;28;20085;-92
2023/11/17 01:34:33;;;;;;;3.70;2.28;;;6.90;99.90;;;;;;5004134;28;20095;-92
2023/11/17 01:36:59;;;;;;;2.65;2.28;;;7.00;99.90;;;;;;5019458;28;20483;-92
2023/11/17 01:39:24;;;;;;;2.53;2.10;;;6.90;99.90;;;;;;5011748;28;20452;-92
2023/11/17 01:41:50;;;;;;;2.13;1.92;;;7.00;99.90;;;;;;5018742;28;20463;-92
2023/11/17 01:44:16;;;;;;;3.05;1.70;;;7.00;99.90;;;;;;5022670;28;20472;-91
2023/11/17 01:46:44;;;;;;;3.28;2.03;;;7.00;99.90;;;;;;5012683;28;20038;-90
2023/11/17 01:49:12;;;;;;;3.10;2.08;;;6.90;99.90;;;;;;5009581;28;20045;-90
2023/11/17 01:51:38;;;;;;;6.43;2.17;;;6.90;99.90;;;;;;5019605;28;20034;-92
2023/11/17 01:54:05;;;;;;;2.60;1.83;;;6.80;99.90;;;;;;5020163;28;20049;-93
2023/11/17 01:56:31;;;;;;;3.03;2.53;;;6.90;99.90;;;;;;5002752;28;20088;-91
2023/11/17 01:58:57;;;;;;;2.53;2.13;;;6.80;99.90;;;;;;5028564;28;20504;-91
2023/11/17 02:01:25;;;;;;;3.72;1.88;;;6.80;99.90;;;;;;5018066;28;20026;-93
2023/11/17 02:03:52;;;;;;;3.60;3.30;;;6.80;99.90;;;;;;5027712;28;20113;-92
2023/11/17 02:06:29;;;;;;;5.85;2.00;;;6.80;99.90;;;;;;5039962;28;20337;-93
2023/11/17 02:09:15;;;;;;;2.70;2.05;;;6.80;99.90;;;;;;5023713;28;20026;-94
2023/11/17 02:11:46;;;;;;;2.72;2.17;;;6.80;99.90;;;;;;5023019;28;20018;-91
2023/11/17 02:14:24;;;;;;;3.00;2.55;;;6.80;99.90;;;;;;5015238;28;20022;-92
2023/11/17 02:16:51;;;;;;;3.50;2.33;;;6.80;99.90;;;;;;5023821;28;20088;-93
2023/11/17 02:19:28;;;;;;;3.85;2.92;;;6.80;99.90;;;;;;5023387;28;20108;-91
2023/11/17 02:22:02;;;;;;;4.47;2.60;;;6.80;99.90;;;;;;5025065;28;20049;-93
2023/11/17 02:24:36;;;;;;;3.17;2.65;;;6.80;99.90;;;;;;5023364;28;20049;-92
2023/11/17 02:27:36;;;;;;;3.35;2.28;;;6.80;99.90;;;;;;5022641;28;20025;-91
2023/11/17 02:30:07;;;;;;;3.47;2.83;;;6.80;99.90;;;;;;5021975;28;20030;-94
2023/11/17 02:32:38;;;;;;;3.33;2.10;;;6.80;99.90;;;;;;5004497;28;20117;-91
2023/11/17 02:35:06;;;;;;;2.13;1.90;;;6.80;99.90;;;;;;5019706;28;20028;-92
2023/11/17 02:37:31;;;;;;;;;;;6.80;99.90;;;;;;5022204;28;20157;-91
2023/11/17 02:39:57;;;;;;;3.55;2.55;;;6.70;99.90;;;;;;5023639;28;19913;-94
2023/11/17 02:42:24;;;;;;;2.63;2.28;;;6.70;99.90;;;;;;5021444;28;20033;-92
2023/11/17 02:44:50;;;;;;;3.92;2.80;;;6.70;99.90;;;;;;5025842;28;20022;-92
2023/11/17 02:47:27;;;;;;;3.15;2.65;;;6.70;99.90;;;;;;5003525;28;20085;-92
2023/11/17 02:50:00;;;;;;;2.85;2.58;;;6.80;99.90;;;;;;5002704;28;20096;-90
2023/11/17 02:55:14;;;;;;;;;;;6.70;99.90;;;;;;5025080;28;20053;-91
2023/11/17 02:57:41;;;;;;;2.88;2.45;;;6.80;99.90;;;;;;5023945;28;19917;-92
2023/11/17 03:00:10;;;;;;;3.28;2.50;;;6.80;99.90;;;;;;5022347;28;20022;-91
2023/11/17 03:02:39;;;;;;;3.45;2.17;;;6.80;99.90;;;;;;5023083;28;20082;-90
2023/11/17 03:05:08;;;;;;;5.90;3.17;;;6.70;99.90;;;;;;5022467;28;20567;-91
2023/11/17 03:07:35;;;;;;;4.28;3.03;;;6.70;99.90;;;;;;5023490;28;20048;-93
2023/11/17 03:10:02;;;;;;;4.03;2.60;;;6.70;99.90;;;;;;5004127;28;20026;-92
2023/11/17 03:12:28;;;;;;;3.67;2.92;;;6.70;99.90;;;;;;5022309;28;20022;-91
2023/11/17 03:14:54;;;;;;;3.47;2.25;;;6.70;99.90;;;;;;5021763;28;20105;-90
2023/11/17 03:17:19;;;;;;;5.43;3.30;;;6.80;99.90;;;;;;5021837;28;20030;-91
2023/11/17 03:19:45;;;;;;;5.75;3.28;;;6.70;99.90;;;;;;5021320;28;20033;-92
2023/11/17 03:22:13;;;;;;;5.97;3.47;;;6.70;99.90;;;;;;5027579;28;20036;-91
2023/11/17 03:24:41;;;;;;;5.20;3.20;;;6.70;99.90;;;;;;5000186;28;20073;-91
2023/11/17 03:27:07;;;;;;;6.05;3.90;;;6.70;99.90;;;;;;5009922;28;20056;-91
2023/11/17 03:29:33;;;;;;;7.63;3.63;;;6.70;99.90;;;;;;5020283;28;20025;-90
2023/11/17 03:31:59;;;;;;;8.13;4.13;;;6.70;99.90;;;;;;5025721;28;20387;-92
2023/11/17 03:34:29;;;;;;;5.88;4.03;;;6.70;99.90;;;;;;5020394;28;20019;-91
2023/11/17 03:37:02;;;;;;;6.15;3.90;;;6.70;99.90;;;;;;5022053;28;20022;-92
2023/11/17 03:39:32;;;;;;;4.78;3.22;;;6.70;99.90;;;;;;5020481;28;20022;-90
2023/11/17 03:42:00;;;;;;;3.95;3.03;;;6.70;99.90;;;;;;5021907;28;20014;-90
2023/11/17 03:44:27;;;;;;;7.38;3.25;;;6.70;99.90;;;;;;5013361;28;20025;-91
2023/11/17 03:47:06;;;;;;;8.93;3.75;;;6.70;99.90;;;;;;5021720;28;20022;-91
2023/11/17 03:49:33;;;;;;;5.05;3.45;;;6.70;99.90;;;;;;5021700;28;20060;-91
2023/11/17 03:52:00;;;;;;;6.82;3.40;;;6.70;99.90;;;;;;5021387;28;20052;-91
2023/11/17 03:54:25;;;;;;;4.63;2.95;;;6.70;99.90;;;;;;5022459;28;20424;-93
2023/11/17 03:56:53;;;;;;;4.97;3.65;;;6.70;99.90;;;;;;5009939;28;20037;-92
2023/11/17 03:59:19;;;;;;;6.35;3.00;;;6.60;99.90;;;;;;5023908;28;20026;-91
2023/11/17 04:01:45;;;;;;;7.53;4.15;;;6.70;99.90;;;;;;5013615;28;20408;-91
2023/11/17 04:04:11;;;;;;;5.57;2.97;;;6.70;99.90;;;;;;5001714;28;20401;-92
2023/11/17 04:06:37;;;;;;;5.97;3.63;;;6.60;99.90;;;;;;4984402;28;20026;-92
2023/11/17 04:09:15;;;;;;;7.65;3.60;;;6.60;99.90;;;;;;5000236;28;20110;-92
2023/11/17 04:11:42;;;;;;;5.97;3.55;;;6.60;99.90;;;;;;4984105;28;20026;-91
2023/11/17 04:14:07;;;;;;;4.85;3.70;;;6.70;99.90;;;;;;5002930;28;20030;-92
2023/11/17 04:16:34;;;;;;;6.07;3.88;;;6.60;99.90;;;;;;5020109;28;20481;-92
2023/11/17 04:19:00;;;;;;;4.47;3.50;;;6.60;99.90;;;;;;5018751;28;20022;-93
2023/11/17 04:21:26;;;;;;;6.40;3.65;;;6.60;99.90;;;;;;5018532;28;20096;-93
2023/11/17 04:23:52;;;;;;;4.70;3.55;;;6.60;99.90;;;;;;5019598;28;20022;-91
2023/11/17 04:26:20;;;;;;;5.53;4.00;;;6.60;99.90;;;;;;5017793;28;20030;-91
2023/11/17 04:28:49;;;;;;;5.40;2.72;;;6.50;99.90;;;;;;5012109;28;20052;-93
2023/11/17 04:31:15;;;;;;;8.35;4.97;;;6.60;99.90;;;;;;5034683;28;20097;-91
2023/11/17 04:33:41;;;;;;;5.85;3.55;;;6.60;99.90;;;;;;5002880;28;20520;-91
2023/11/17 04:36:11;;;;;;;4.07;2.65;;;6.50;99.90;;;;;;5002261;28;20404;-92
2023/11/17 04:38:40;;;;;;;7.28;3.40;;;6.50;99.90;;;;;;5019241;28;20033;-90
2023/11/17 04:41:06;;;;;;;6.28;3.67;;;6.50;99.90;;;;;;5019058;28;20714;-92
2023/11/17 04:43:33;;;;;;;4.47;3.58;;;6.50;99.90;;;;;;5019988;28;20032;-92
2023/11/17 04:45:59;;;;;;;4.18;3.58;;;6.50;99.90;;;;;;5020189;28;20030;-94
2023/11/17 04:48:24;;;;;;;4.43;3.05;;;6.50;99.90;;;;;;5021196;28;20025;-93
2023/11/17 04:50:50;;;;;;;4.07;3.55;;;6.50;99.90;;;;;;5020851;28;20026;-92
2023/11/17 04:53:16;;;;;;;5.28;3.85;;;6.60;99.90;;;;;;5002081;28;20094;-92
2023/11/17 04:55:44;;;;;;;6.55;3.25;;;6.50;99.90;;;;;;5002361;28;20109;-92
2023/11/17 04:58:13;;;;;;;4.68;3.97;;;6.50;99.90;;;;;;5015619;28;20033;-92
2023/11/17 05:00:40;;;;;;;5.28;3.67;;;6.50;99.90;;;;;;5020408;28;20045;-94
2023/11/17 05:03:06;;;;;;;6.80;3.78;;;6.50;99.90;;;;;;5021517;28;20018;-92
2023/11/17 05:05:33;;;;;;;6.88;3.40;;;6.60;99.90;;;;;;5020996;28;20491;-91
2023/11/17 05:07:59;;;;;;;6.90;3.72;;;6.50;99.90;;;;;;5022076;28;20032;-92
2023/11/17 05:10:26;;;;;;;6.68;4.60;;;6.50;99.90;;;;;;5012802;28;20045;-92
2023/11/17 05:12:53;;;;;;;6.25;3.72;;;6.50;99.90;;;;;;5019901;28;20032;-93
2023/11/17 05:15:24;;;;;;;7.95;3.65;;;6.50;99.90;;;;;;5019002;28;20030;-91
2023/11/17 05:17:50;;;;;;;7.78;4.00;;;6.50;99.90;;;;;;5023079;28;20033;-94
2023/11/17 05:20:20;;;;;;;7.05;5.07;;;6.50;99.90;;;;;;5018828;28;20101;-90
2023/11/17 05:22:47;;;;;;;8.65;4.82;;;6.50;99.90;;;;;;5000867;28;20030;-91
2023/11/17 05:25:14;;;;;;;9.32;5.35;;;6.50;99.90;;;;;;5015990;28;20033;-91
2023/11/17 05:27:42;;;;;;;8.25;5.03;;;6.50;99.90;;;;;;5017428;28;20024;-90
2023/11/17 05:30:08;;;;;;;8.48;5.47;;;6.50;99.90;;;;;;5018856;28;20025;-91
2023/11/17 05:32:35;;;;;;;7.93;3.83;;;6.50;99.90;;;;;;5023304;28;20054;-92
2023/11/17 05:35:02;;;;;;;6.00;4.47;;;6.50;99.90;;;;;;5006477;28;20098;-92
2023/11/17 05:37:27;;;;;;;8.32;5.78;;;6.50;99.90;;;;;;5002386;28;20121;-92
2023/11/17 05:39:53;;;;;;;9.15;5.07;;;6.50;99.90;;;;;;5021389;28;20072;-91
2023/11/17 05:42:19;;;;;;;8.43;4.32;;;6.50;99.90;;;;;;5019894;28;20037;-92
2023/11/17 05:44:45;;;;;;;7.15;4.50;;;6.50;99.90;;;;;;5002709;28;20543;-91
2023/11/17 05:47:11;;;;;;;8.27;5.57;;;6.50;99.90;;;;;;5018763;28;20030;-91
2023/11/17 05:49:43;;;;;;;9.55;5.35;;;6.50;99.90;;;;;;5014141;28;20033;-91
2023/11/17 05:52:14;;;;;;;8.10;4.88;;;6.50;99.90;;;;;;5024196;28;20026;-92
2023/11/17 05:54:43;;;;;;;9.80;5.25;;;6.50;99.90;;;;;;5022593;28;20117;-92
2023/11/17 05:57:16;;;;;;;14.55;7.35;;;6.50;99.90;;;;;;5021669;28;20112;-91
2023/11/17 05:59:44;;;;;;;8.23;5.30;;;6.50;99.90;;;;;;5019125;28;20042;-90
2023/11/17 06:02:10;;;;;;;8.07;4.88;;;6.50;99.90;;;;;;5018384;28;20022;-90
2023/11/17 06:04:37;;;;;;;10.00;6.40;;;6.50;99.90;;;;;;5021434;28;20050;-93
2023/11/17 06:07:03;;;;;;;9.82;5.93;;;6.50;99.90;;;;;;5016913;28;20022;-90
2023/11/17 06:09:30;;;;;;;8.40;5.65;;;6.50;99.90;;;;;;5019828;28;20026;-90
2023/11/17 06:11:56;;;;;;;8.00;5.22;;;6.50;99.90;;;;;;5017665;28;20022;-93
2023/11/17 06:14:31;;;;;;;8.98;5.28;;;6.50;99.90;;;;;;5016749;28;20038;-92
2023/11/17 06:16:57;;;;;;;11.90;6.68;;;6.50;99.90;;;;;;5017603;28;20026;-91
2023/11/17 06:19:23;;;;;;;11.60;5.68;;;6.50;99.90;;;;;;5010162;28;20018;-92
2023/11/17 06:21:50;;;;;;;10.48;6.47;;;6.50;99.90;;;;;;5007358;28;20026;-92
2023/11/17 06:24:16;;;;;;;7.85;5.00;;;6.50;99.90;;;;;;5018000;28;20026;-92
2023/11/17 06:26:45;;;;;;;11.02;6.07;;;6.50;99.90;;;;;;5020084;28;20033;-93
2023/11/17 06:29:15;;;;;;;9.20;5.10;;;6.50;99.90;;;;;;5020630;28;20026;-95
2023/11/17 06:31:41;;;;;;;12.55;7.13;;;6.40;99.90;;;;;;5019764;28;20026;-92
2023/11/17 06:34:09;;;;;;;10.73;6.63;;;6.50;99.90;;;;;;5020653;28;20041;-92
2023/11/17 06:36:37;;;;;;;8.82;5.78;;;6.50;99.90;;;;;;5021171;28;20025;-91
2023/11/17 06:39:14;;;;;;;;;;;6.50;99.90;;;;;;5019794;28;20036;-92
2023/11/17 06:41:49;;;;;;;14.88;7.05;;;6.50;99.90;;;;;;5020652;28;19960;-92
2023/11/17 06:44:19;;;;;;;9.77;6.50;;;6.50;99.90;;;;;;5022189;28;20053;-91
2023/11/17 06:46:50;;;;;;;11.75;7.90;;;6.50;99.90;;;;;;5003615;28;20060;-92
2023/11/17 06:49:20;;;;;;;12.35;6.68;;;6.50;99.90;;;;;;5021416;28;20026;-91
2023/11/17 06:51:50;;;;;;;13.60;7.57;;;6.40;99.90;;;;;;5007189;28;20113;-92
2023/11/17 06:54:18;;;;;;;13.38;9.90;;;6.50;99.90;;;;;;5006158;28;20014;-91
2023/11/17 06:56:47;;;;;;;14.77;7.97;;;6.40;99.90;;;;;;5021988;28;20026;-91
2023/11/17 06:59:17;;;;;;;15.82;8.15;;;6.50;99.90;;;;;;5019900;28;20057;-92
2023/11/17 07:01:44;;;;;;;13.00;7.65;;;6.50;99.90;;;;;;5020226;28;20031;-92
2023/11/17 07:04:12;;;;;;;11.55;6.55;;;6.50;99.90;;;;;;5019603;28;20036;-92
2023/11/17 07:06:39;;;;;;;12.25;7.15;;;6.50;99.90;;;;;;5019531;28;20080;-92
2023/11/17 07:09:17;;;;;;;11.63;7.28;;;6.50;99.90;;;;;;5018904;28;20103;-93
2023/11/17 07:11:51;;;;;;;11.73;6.32;;;6.50;99.90;;;;;;5019718;28;20028;-92
2023/11/17 07:14:21;;;;;;;15.77;7.18;;;6.50;99.90;;;;;;5018805;28;20022;-91
2023/11/17 07:16:48;;;;;;;14.65;7.70;;;6.50;99.90;;;;;;5017825;28;20026;-93
2023/11/17 07:19:17;;;;;;;12.13;6.93;;;6.50;99.90;;;;;;5003033;28;20140;-91
2023/11/17 07:21:50;;;;;;;13.55;7.78;;;6.50;99.90;;;;;;5020475;28;20022;-93
2023/11/17 07:24:19;;;;;;;18.15;8.10;;;6.50;99.90;;;;;;5002935;28;20113;-91
2023/11/17 07:26:46;;;;;;;14.07;7.13;;;6.50;99.90;;;;;;5034487;28;20021;-91
2023/11/17 07:29:13;;;;;;;17.30;7.63;;;6.60;99.90;;;;;;5020554;28;20532;-93
2023/11/17 07:31:43;;;;;;;15.77;7.25;;;6.60;99.90;;;;;;5013955;28;20057;-91
2023/11/17 07:34:15;;;;;;;15.60;7.15;;;6.60;99.90;;;;;;5020608;28;20441;-92
2023/11/17 07:36:41;;;;;;;13.30;6.78;;;6.60;99.90;;;;;;5020949;28;20388;-93
2023/11/17 07:39:09;;;;;;;15.52;7.22;;;6.60;99.90;;;;;;5019968;28;20021;-93
2023/11/17 07:41:36;;;;;;;13.23;6.60;;;6.60;99.90;;;;;;5020914;28;20468;-92
2023/11/17 07:44:02;;;;;;;15.55;7.70;;;6.60;99.90;;;;;;5007300;28;20029;-93
2023/11/17 07:46:28;;;;;;;12.25;6.47;;;6.60;99.90;;;;;;5023763;28;20034;-91
2023/11/17 07:48:56;;;;;;;11.13;6.25;;;6.60;99.90;;;;;;5023356;28;20045;-93
2023/11/17 07:51:23;;;;;;;13.35;7.30;;;6.60;99.90;;;;;;5000379;28;20030;-92
2023/11/17 07:53:49;;;;;;;17.95;7.28;;;6.60;99.90;;;;;;5021848;28;20058;-90
2023/11/17 07:56:15;;;;;;;10.82;5.97;;;6.50;99.90;;;;;;5021961;28;20030;-93
2023/11/17 07:58:44;;;;;;;13.43;6.15;;;6.50;99.90;;;;;;5020410;28;20037;-92
2023/11/17 08:01:09;;;;;;;14.63;7.50;;;6.60;99.90;;;;;;5020032;28;20026;-92
2023/11/17 08:03:36;;;;;;;13.88;6.78;;;6.60;99.90;;;;;;5019693;28;20077;-91
2023/11/17 08:06:02;;;;;;;11.85;7.85;;;6.60;99.90;;;;;;5020900;28;20086;-93
2023/11/17 08:08:29;;;;;;;11.48;6.35;;;6.50;99.90;;;;;;5002044;28;20076;-92
2023/11/17 08:10:55;;;;;;;12.15;5.50;;;6.60;99.90;;;;;;5026449;28;20022;-92
2023/11/17 08:13:22;;;;;;;10.88;6.32;;;6.60;99.90;;;;;;5019908;28;20481;-91
2023/11/17 08:15:48;;;;;;;9.82;5.47;;;6.60;99.90;;;;;;5026915;28;20086;-92
2023/11/17 08:18:18;;;;;;;9.90;6.47;;;6.60;99.90;;;;;;5028573;28;20538;-91
2023/11/17 08:20:45;;;;;;;13.90;5.72;;;6.60;99.90;;;;;;5019491;28;20029;-92
2023/11/17 08:23:11;;;;;;;6.25;4.57;;;6.70;99.90;;;;;;5019701;28;20060;-92
2023/11/17 08:25:38;;;;;;;9.07;4.97;;;6.60;99.90;;;;;;5018763;28;20017;-89
2023/11/17 08:28:04;;;;;;;9.02;4.38;;;6.70;99.90;;;;;;5019565;28;20025;-92
2023/11/17 08:30:30;;;;;;;11.50;5.15;;;6.60;99.90;;;;;;5019390;28;20072;-91
2023/11/17 08:32:57;;;;;;;7.70;3.58;;;6.70;99.90;;;;;;5019679;28;20018;-91
2023/11/17 08:35:23;;;;;;;8.55;4.53;;;6.70;99.90;;;;;;5020355;28;20034;-91
2023/11/17 08:37:52;;;;;;;7.20;4.35;;;6.70;99.90;;;;;;5019061;28;20030;-91
2023/11/17 08:40:18;;;;;;;12.32;5.07;;;6.70;99.90;;;;;;5018068;28;20022;-93
2023/11/17 08:42:44;;;;;;;8.38;4.70;;;6.60;99.90;;;;;;5019879;28;20481;-93
2023/11/17 08:45:12;;;;;;;6.65;4.82;;;6.60;99.90;;;;;;5020193;28;20196;-92
2023/11/17 08:47:39;;;;;;;11.52;4.45;;;6.60;99.90;;;;;;5019767;28;20097;-92
2023/11/17 08:50:07;;;;;;;7.50;5.07;;;6.60;99.90;;;;;;5017895;28;20092;-91
2023/11/17 08:52:34;;;;;;;9.93;3.97;;;6.60;99.90;;;;;;5018282;28;20076;-92
2023/11/17 08:55:13;;;;;;;8.88;4.43;;;6.70;99.90;;;;;;5018092;28;20029;-94
2023/11/17 08:57:39;;;;;;;10.48;4.93;;;6.70;99.90;;;;;;5003313;28;20403;-91
2023/11/17 09:00:18;;;;;;;11.93;5.90;;;6.70;99.90;;;;;;5016852;28;20127;-92
2023/11/17 09:02:46;;;;;;;7.97;4.82;;;6.70;99.90;;;;;;5017992;28;20106;-91
2023/11/17 09:05:13;;;;;;;7.68;5.15;;;6.70;99.90;;;;;;5016618;28;20040;-91
2023/11/17 09:07:44;;;;;;;12.18;5.40;;;6.80;99.90;;;;;;5016975;28;20025;-90
2023/11/17 09:10:14;;;;;;;8.90;5.70;;;6.80;99.90;;;;;;4997382;28;20030;-93
2023/11/17 09:12:43;;;;;;;9.80;4.88;;;6.80;99.90;;;;;;5016231;28;20053;-90
2023/11/17 09:15:16;;;;;;;9.25;5.03;;;6.90;99.90;;;;;;5018055;28;20409;-91
2023/11/17 09:17:46;;;;;;;8.90;4.95;;;6.90;99.90;;;;;;5019271;28;20032;-91
2023/11/17 09:20:13;;;;;;;12.05;5.35;;;6.90;99.90;;;;;;5021981;28;20034;-93
2023/11/17 09:22:42;;;;;;;8.48;4.72;;;6.90;99.90;;;;;;5019672;28;20045;-91
2023/11/17 09:25:13;;;;;;;7.93;4.47;;;6.90;99.90;;;;;;5018744;28;20034;-92
2023/11/17 09:27:41;;;;;;;10.55;5.78;;;6.90;99.90;;;;;;5019218;28;20029;-91
2023/11/17 09:30:12;;;;;;;8.70;4.97;;;7.00;99.90;;;;;;5018986;28;20026;-91
2023/11/17 09:32:39;;;;;;;10.77;4.82;;;6.90;99.90;;;;;;5019537;28;20081;-92
2023/11/17 09:35:13;;;;;;;7.22;4.43;;;6.90;99.90;;;;;;5017509;28;20026;-92
2023/11/17 09:37:44;;;;;;;10.25;5.28;;;6.90;99.90;;;;;;5002743;28;20439;-91
2023/11/17 09:40:10;;;;;;;11.18;5.22;;;6.90;99.90;;;;;;5014986;28;20390;-91
2023/11/17 09:42:38;;;;;;;9.75;4.78;;;6.80;99.90;;;;;;5017870;28;20519;-91
2023/11/17 09:45:06;;;;;;;9.95;5.28;;;6.90;99.90;;;;;;4999635;28;20041;-91
2023/11/17 09:47:32;;;;;;;7.45;4.82;;;6.90;99.90;;;;;;5018392;28;20101;-93
2023/11/17 09:50:00;;;;;;;10.02;5.88;;;6.90;99.90;;;;;;5017957;28;20025;-92
2023/11/17 09:52:26;;;;;;;7.95;4.72;;;6.90;99.90;;;;;;5018913;28;20408;-90
2023/11/17 09:54:52;;;;;;;9.38;4.70;;;6.90;99.90;;;;;;5020363;28;20024;-93
2023/11/17 09:57:19;;;;;;;10.65;5.18;;;6.90;99.90;;;;;;5019396;28;20026;-92
2023/11/17 09:59:45;;;;;;;8.45;4.50;;;7.00;99.90;;;;;;5017213;28;20380;-91
2023/11/17 10:02:19;;;;;;;8.73;4.55;;;7.00;99.90;;;;;;5016350;28;20033;-91
2023/11/17 10:04:45;;;;;;;7.68;4.90;;;7.00;99.90;;;;;;5016353;28;20484;-92
2023/11/17 10:07:13;;;;;;;8.27;4.95;;;7.00;99.90;;;;;;5013651;28;20172;-91
2023/11/17 10:09:44;;;;;;;6.78;4.50;;;7.00;99.90;;;;;;5016732;28;20018;-91
2023/11/17 10:12:12;;;;;;;7.60;4.80;;;7.00;99.90;;;;;;5019436;28;20218;-92
2023/11/17 10:14:40;;;;;;;10.60;4.82;;;7.00;99.90;;;;;;5023456;28;20014;-91
2023/11/17 10:17:07;;;;;;;7.53;5.10;;;7.00;99.90;;;;;;5005203;28;20454;-92
2023/11/17 10:19:34;;;;;;;7.53;4.72;;;7.00;99.90;;;;;;5010700;28;20151;-93
2023/11/17 10:22:00;;;;;;;6.95;4.57;;;7.10;99.90;;;;;;5017631;28;20030;-93
2023/11/17 10:24:28;;;;;;;8.23;4.00;;;7.10;99.90;;;;;;5018757;28;20018;-92
2023/11/17 10:26:55;;;;;;;8.88;4.05;;;7.10;99.90;;;;;;5003779;28;20065;-91
2023/11/17 10:29:21;;;;;;;10.73;4.68;;;7.10;99.90;;;;;;5022043;28;20433;-93
2023/11/17 10:31:47;;;;;;;6.65;4.50;;;7.10;99.90;;;;;;5023924;28;20053;-94
2023/11/17 10:34:13;;;;;;;8.57;3.70;;;7.10;99.90;;;;;;5005941;28;20021;-91
2023/11/17 10:36:59;;;;;;;6.63;4.70;;;7.10;99.90;;;;;;5023292;28;20034;-92
2023/11/17 10:39:25;;;;;;;7.03;4.63;;;7.10;99.90;;;;;;5022181;28;20116;-91
2023/11/17 10:41:53;;;;;;;6.20;4.20;;;7.10;99.90;;;;;;5021740;28;20033;-91
2023/11/17 10:44:33;;;;;;;5.85;3.50;;;7.00;99.90;;;;;;5021689;28;20034;-92
2023/11/17 10:47:04;;;;;;;6.97;3.78;;;7.10;99.90;;;;;;5022215;28;20026;-92
2023/11/17 10:49:32;;;;;;;7.00;3.72;;;7.00;99.90;;;;;;5021174;28;20022;-92
2023/11/17 10:51:58;;;;;;;4.75;3.42;;;7.00;99.90;;;;;;5021504;28;20051;-91
2023/11/17 10:54:23;;;;;;;6.65;4.78;;;7.00;99.90;;;;;;5024660;28;20022;-92
2023/11/17 10:56:50;;;;;;;6.43;3.67;;;7.00;99.90;;;;;;5026146;28;20058;-91
2023/11/17 10:59:18;;;;;;;6.10;3.75;;;7.00;99.90;;;;;;5019836;28;20037;-90
2023/11/17 11:01:45;;;;;;;7.97;3.22;;;6.90;99.90;;;;;;5019687;28;20018;-92
2023/11/17 11:04:27;;;;;;;5.38;3.03;;;7.00;99.90;;;;;;5019790;28;20033;-92
2023/11/17 11:06:57;;;;;;;6.20;4.78;;;7.10;99.90;;;;;;5020603;28;20219;-92
2023/11/17 11:09:35;;;;;;;5.88;3.10;;;7.10;99.90;;;;;;5004117;28;20022;-91
2023/11/17 11:12:12;;;;;;;9.73;4.25;;;7.20;99.90;;;;;;5030016;28;20025;-92
2023/11/17 11:14:43;;;;;;;5.47;3.75;;;7.20;99.90;;;;;;5014353;28;20029;-92
2023/11/17 11:17:09;;;;;;;6.50;3.80;;;7.20;99.90;;;;;;5021831;28;20520;-93
2023/11/17 11:19:37;;;;;;;4.97;4.10;;;7.30;99.90;;;;;;5022668;28;20221;-93
2023/11/17 11:22:04;;;;;;;6.20;3.63;;;7.40;99.90;;;;;;5032452;28;20049;-91
2023/11/17 11:24:33;;;;;;;4.63;3.28;;;7.40;99.90;;;;;;5026227;28;20013;-91
2023/11/17 11:27:01;;;;;;;6.32;2.97;;;7.40;99.90;;;;;;5011599;28;20050;-91
2023/11/17 11:29:29;;;;;;;4.22;3.17;;;7.40;99.90;;;;;;5028139;28;20026;-93
2023/11/17 11:31:56;;;;;;;6.95;4.25;;;7.40;99.90;;;;;;5002682;28;20026;-93
2023/11/17 11:34:22;;;;;;;5.68;3.25;;;7.40;99.90;;;;;;5013128;28;20401;-93
2023/11/17 11:36:49;;;;;;;5.13;2.78;;;7.40;99.90;;;;;;5021957;28;20041;-93
2023/11/17 11:39:16;;;;;;;4.10;3.30;;;7.40;99.90;;;;;;5025669;28;20422;-92
2023/11/17 11:41:42;;;;;;;4.47;3.38;;;7.40;99.90;;;;;;5002875;28;20112;-92
2023/11/17 11:44:09;;;;;;;4.35;3.03;;;7.50;99.90;;;;;;5003631;28;20109;-92
2023/11/17 11:46:37;;;;;;;3.67;2.83;;;7.40;99.90;;;;;;5003287;28;20022;-94
2023/11/17 11:49:06;;;;;;;4.53;2.85;;;7.40;99.90;;;;;;5018111;28;20026;-92
2023/11/17 11:51:40;;;;;;;5.28;2.60;;;7.30;99.90;;;;;;5019842;28;20052;-91
2023/11/17 11:54:08;;;;;;;5.20;3.42;;;7.30;99.90;;;;;;5020064;28;20022;-91
2023/11/17 11:56:39;;;;;;;3.78;3.17;;;7.30;99.90;;;;;;5021055;28;20026;-91
2023/11/17 11:59:05;;;;;;;4.75;2.83;;;7.30;99.90;;;;;;5013597;28;20083;-92
2023/11/17 12:01:34;;;;;;;3.55;2.95;;;7.20;99.90;;;;;;5020740;28;20090;-90
2023/11/17 12:04:05;;;;;;;3.30;2.35;;;7.20;99.90;;;;;;5023387;28;20036;-94
2023/11/17 12:06:33;;;;;;;3.83;2.22;;;7.10;99.90;;;;;;5017223;28;20026;-93
2023/11/17 12:09:07;;;;;;;3.35;1.95;;;7.20;99.90;;;;;;5023479;28;20022;-93
2023/11/17 12:11:36;;;;;;;;;;;7.10;99.90;;;;;;5016194;28;20495;-92
2023/11/17 12:14:09;;;;;;;2.65;2.33;;;7.10;99.90;;;;;;5023104;28;19906;-92
2023/11/17 12:16:37;;;;;;;2.45;1.95;;;7.00;99.90;;;;;;5022050;28;20022;-91
2023/11/17 12:19:05;;;;;;;3.28;2.83;;;7.00;99.90;;;;;;5003014;28;20032;-91
2023/11/17 12:21:38;;;;;;;3.42;2.13;;;7.00;99.90;;;;;;5020435;28;20415;-93
2023/11/17 12:24:15;;;;;;;3.10;2.55;;;7.00;99.90;;;;;;5004445;28;20052;-91
2023/11/17 12:26:44;;;;;;;4.70;2.45;;;7.00;99.90;;;;;;5018778;28;20026;-92
2023/11/17 12:29:18;;;;;;;3.10;2.58;;;7.00;99.90;;;;;;5022668;28;20029;-92
2023/11/17 12:31:49;;;;;;;2.75;2.40;;;7.00;99.90;;;;;;5025288;28;20022;-93
2023/11/17 12:34:18;;;;;;;3.47;2.83;;;7.10;99.90;;;;;;5023488;28;20137;-91
2023/11/17 12:36:47;;;;;;;4.25;2.78;;;7.10;99.90;;;;;;5016128;28;20029;-93
2023/11/17 12:39:16;;;;;;;4.07;2.63;;;7.10;99.90;;;;;;5012928;28;20030;-91
2023/11/17 12:41:50;;;;;;;3.33;3.03;;;7.10;99.90;;;;;;5018735;28;20026;-92
2023/11/17 12:44:17;;;;;;;5.70;3.22;;;7.00;99.90;;;;;;5005118;28;20032;-92
2023/11/17 12:46:44;;;;;;;5.13;3.13;;;7.00;99.90;;;;;;5020597;28;20034;-92
2023/11/17 12:49:12;;;;;;;4.45;3.53;;;7.00;99.90;;;;;;5024093;28;20730;-92
2023/11/17 12:51:37;;;;;;;5.15;3.53;;;7.00;99.90;;;;;;5005053;28;20014;-93
2023/11/17 12:54:06;;;;;;;5.65;3.90;;;7.10;99.90;;;;;;5014904;28;20105;-91
2023/11/17 12:56:32;;;;;;;4.53;3.53;;;7.10;99.90;;;;;;5022645;28;20467;-90
2023/11/17 12:58:58;;;;;;;4.72;3.25;;;7.10;99.90;;;;;;5021796;28;20088;-92
2023/11/17 13:01:28;;;;;;;7.50;4.03;;;7.20;99.90;;;;;;5022006;28;20025;-93
2023/11/17 13:04:02;;;;;;;9.30;5.65;;;7.20;99.90;;;;;;5023104;28;20061;-93